world map with LVI marked

LVI - Airport

This information may not be accurate or current and is not valid for navigation or flight planning. No warranty of fitness for any purpose is made or implied.

flag of Zambia

Donate via PayPal

Additional information is available on the NEW Great Circle Mapper

Location
City:  Livingstone, Southern, Zambia
Near (Alt.):Maramba
Name:Harry Mwanga Nkumbula International (Livingstone Airport)
ICAO / IATA:FLHN / LVI

Details
Type:Airport (Aerodrome, Airfield)
Use:Public/Civil, Military
Latitude:17°49'18"S (-17.821755)
Longitude:25°49'22"E (25.822692)
Elevation:3302 ft (1006 m)
Runways:2
Longest:7520 × 197 ft (2292 × 60 m)

Time
Timezone:UTC+2 (DST+4)
Local Time:

Weather
METAR:FLHN  041300Z VRB03KT 9999 TS FEW050CB SCT050 34/13 Q1012 TEMPO TS
TAF:FLHN  (expired)

Related Locations
Nearby:
Farthest:ITO: 12290 mi / 19779 km
Hilo [Hilo Intl], Hawaii, HI, US

Find:

   beyond  
but within

Other Information
Maps:
Sources:

  


 


Great Circle Mapper   Great Circle Mapper
Great Circle Mapper FAQ   Great Circle Mapper FAQ
  Karl's Home Page
KLSē   KLSē Home
   GC on Facebook
Airlines of the World   Airlines of the World
Donate via PayPal


Copyright © 2004-2019, Karl L. Swartz. All rights reserved.
All trademarks mentioned herein belong to their respective owners.

Please see credits for attribution and copyright information.

Karl Swartz <karl@kls2.com>
  Powered by FreeBSD
Valid HTML 4.01!
Labeled with ICRA
hCard Microformat
Geo Microformat